createdAt,value
2019-01-08T06:58:01.698Z,13.03
2019-01-08T07:00:33.545Z,10.60
2019-01-08T07:03:00.510Z,10.80
2019-01-08T07:05:29.234Z,14.93
2019-01-08T07:07:57.888Z,9.83
2019-01-08T07:10:26.470Z,14.87
2019-01-08T07:12:55.107Z,10.87
2019-01-08T07:15:23.808Z,12.83
2019-01-08T07:17:52.443Z,11.83
2019-01-08T07:20:21.027Z,12.47
2019-01-08T07:22:49.661Z,12.07
2019-01-08T07:25:18.286Z,13.93
2019-01-08T07:27:46.965Z,13.23
2019-01-08T07:30:15.729Z,13.80
2019-01-08T07:32:44.357Z,12.07
2019-01-08T07:35:13.050Z,14.50
2019-01-08T07:37:41.640Z,10.83
2019-01-08T07:40:10.338Z,11.00
2019-01-08T07:42:38.956Z,8.67
2019-01-08T07:45:07.620Z,10.10
2019-01-08T07:47:36.238Z,13.40
2019-01-08T07:50:06.905Z,11.30
2019-01-08T07:52:35.492Z,11.57
2019-01-08T07:55:04.678Z,10.20
2019-01-08T07:57:33.258Z,10.57
2019-01-08T17:20:06.294Z,10.53
2019-01-08T17:22:34.868Z,12.10
2019-01-08T17:25:03.937Z,12.77
2019-01-08T17:27:32.568Z,10.17
2019-01-08T17:30:01.270Z,10.07
2019-01-08T17:32:29.854Z,15.30
2019-01-08T17:34:58.472Z,12.30
2019-01-08T17:37:27.061Z,13.27
2019-01-08T17:39:55.687Z,11.73
2019-01-08T17:42:24.292Z,14.10
2019-01-08T17:44:53.549Z,19.57
2019-01-08T17:47:22.302Z,14.57
2019-01-08T17:49:50.881Z,20.87
2019-01-08T17:52:19.509Z,18.83
2019-01-08T17:54:48.135Z,17.20
2019-01-08T17:57:16.758Z,15.10
2019-01-08T17:59:45.509Z,18.17
2019-01-08T18:02:14.788Z,20.07
2019-01-08T18:04:43.458Z,16.03
2019-01-08T18:07:12.070Z,18.17
2019-01-08T18:09:40.858Z,18.80
2019-01-08T18:12:09.517Z,15.10
2019-01-08T18:14:38.155Z,18.87
2019-01-08T18:17:06.930Z,13.87
2019-01-08T18:19:35.518Z,10.37
2019-01-08T18:22:04.373Z,12.23
2019-01-08T18:24:33.008Z,9.93
2019-01-08T18:27:01.717Z,11.63
2019-01-08T18:29:30.459Z,15.33
2019-01-08T18:31:59.373Z,13.17
2019-01-08T18:34:28.046Z,16.03
2019-01-08T18:36:56.844Z,17.63
2019-01-08T18:39:25.438Z,14.67
2019-01-08T18:41:54.179Z,17.70
2019-01-08T18:44:22.934Z,18.40
2019-01-08T18:46:51.557Z,15.93
2019-01-08T18:49:20.253Z,17.23
2019-01-08T18:51:49.159Z,17.03
2019-01-08T18:54:17.806Z,15.77
2019-01-08T18:56:46.615Z,16.17
2019-01-08T18:59:15.247Z,14.53
2019-01-08T19:01:43.827Z,12.73
2019-01-08T19:04:12.453Z,12.80
2019-01-08T19:06:41.041Z,12.77
2019-01-08T19:09:27.585Z,8.07
2019-01-08T19:11:56.702Z,13.20
2019-01-08T19:14:28.336Z,13.93
2019-01-08T19:16:57.081Z,13.13
2019-01-08T19:19:25.730Z,11.97
2019-01-08T19:21:54.434Z,15.77
2019-01-08T19:24:23.087Z,14.87
2019-01-08T19:26:51.661Z,19.67
2019-01-08T19:29:20.431Z,17.63
2019-01-08T19:31:49.110Z,19.30
2019-01-08T19:34:17.804Z,16.03
2019-01-08T19:36:46.398Z,17.87
2019-01-08T19:39:15.085Z,12.77
2019-01-08T19:41:43.830Z,17.40
2019-01-08T19:44:12.464Z,14.43
2019-01-08T19:47:17.721Z,16.63
2019-01-08T19:52:21.202Z,17.40
2019-01-08T19:54:50.101Z,17.27
2019-01-08T19:57:18.681Z,22.67
2019-01-08T19:59:47.313Z,15.57
2019-01-08T20:02:15.998Z,18.50
2019-01-08T20:04:44.621Z,19.77
2019-01-08T20:07:13.271Z,22.00
2019-01-08T20:09:42.038Z,15.03
2019-01-08T20:12:10.626Z,19.70
2019-01-08T20:14:39.198Z,16.30
2019-01-08T20:17:07.843Z,17.17
2019-01-08T20:19:36.416Z,15.90
2019-01-08T20:22:05.066Z,15.87
2019-01-08T20:24:33.693Z,13.90
2019-01-08T20:27:02.308Z,16.43
2019-01-08T20:29:30.888Z,13.50
2019-01-08T20:31:59.648Z,13.37
2019-01-08T20:34:28.298Z,16.13
2019-01-08T20:36:58.041Z,15.87
2019-01-08T20:39:26.704Z,12.40
2019-01-08T20:41:55.327Z,12.27
2019-01-08T20:44:23.918Z,11.90
2019-01-08T20:46:52.537Z,19.93
2019-01-08T20:49:21.185Z,13.47
2019-01-08T20:51:49.807Z,21.47
2019-01-08T20:54:18.392Z,15.17
2019-01-08T20:56:47.009Z,16.67
2019-01-08T20:59:15.631Z,16.57
2019-01-08T21:01:44.258Z,16.03
2019-01-08T21:04:12.963Z,14.30
2019-01-08T21:06:41.536Z,17.07
2019-01-08T21:09:10.123Z,14.83
2019-01-08T21:11:38.876Z,16.60
2019-01-08T21:14:07.594Z,15.03
2019-01-08T21:16:36.292Z,19.53
2019-01-08T21:19:05.065Z,16.67
2019-01-08T21:21:33.691Z,13.00
2019-01-08T21:24:02.271Z,12.93
2019-01-08T21:26:31.227Z,9.97
2019-01-08T21:28:59.860Z,17.03
2019-01-08T21:31:28.598Z,13.80
2019-01-08T21:33:57.323Z,12.30
2019-01-08T21:36:25.944Z,13.60
2019-01-08T21:38:54.701Z,10.97
2019-01-08T21:41:23.547Z,12.07
2019-01-08T21:43:52.290Z,13.50
2019-01-08T21:46:21.193Z,16.10
2019-01-08T21:48:50.117Z,12.27
2019-01-08T21:51:18.781Z,14.37
2019-01-08T21:53:47.414Z,9.77
2019-01-08T21:56:16.045Z,12.87
2019-01-08T21:58:44.704Z,16.63
2019-01-08T22:01:13.323Z,13.23
2019-01-08T22:03:42.041Z,14.73
2019-01-08T22:06:10.757Z,9.97
2019-01-08T22:08:39.594Z,10.67
2019-01-08T22:11:08.514Z,10.50
2019-01-08T22:13:37.262Z,11.10
2019-01-08T22:16:06.061Z,12.27
2019-01-08T22:18:34.799Z,12.87
2019-01-08T22:21:03.470Z,10.50
2019-01-08T22:23:32.174Z,9.10
2019-01-08T22:26:00.805Z,10.57
2019-01-08T22:28:29.566Z,11.47
2019-01-08T22:30:58.386Z,9.07
2019-01-08T22:33:27.214Z,10.13
2019-01-08T22:35:56.373Z,9.53
2019-01-08T22:38:25.020Z,10.93
2019-01-08T22:40:53.661Z,8.47
2019-01-08T22:43:22.278Z,10.10
2019-01-08T22:45:50.923Z,10.33
2019-01-08T22:48:19.549Z,13.13
2019-01-08T22:50:48.225Z,7.50
2019-01-08T22:53:16.930Z,10.83
2019-01-08T22:55:45.611Z,10.10
2019-01-08T22:58:14.591Z,9.80
2019-01-08T23:00:50.971Z,11.57
2019-01-08T23:03:19.674Z,9.67
2019-01-08T23:05:48.359Z,8.30
2019-01-08T23:08:17.675Z,9.43
2019-01-08T23:10:46.771Z,9.37
2019-01-08T23:13:16.094Z,10.97
2019-01-08T23:15:44.715Z,10.57
2019-01-08T23:18:13.341Z,12.23
2019-01-08T23:20:41.984Z,5.67
2019-01-08T23:23:10.673Z,10.47
2019-01-08T23:25:39.309Z,7.07
2019-01-08T23:28:08.004Z,9.30
2019-01-08T23:30:36.619Z,7.27
2019-01-08T23:33:05.257Z,6.67
2019-01-08T23:35:33.942Z,9.37
2019-01-08T23:38:02.580Z,8.23
2019-01-08T23:40:31.283Z,10.77
2019-01-08T23:43:00.037Z,9.00
2019-01-08T23:45:28.682Z,7.40
2019-01-08T23:47:57.442Z,5.60
2019-01-08T23:50:26.089Z,7.30
2019-01-08T23:53:03.615Z,9.00
2019-01-08T23:55:33.437Z,10.00
2019-01-08T23:58:03.197Z,8.23
